sensor_id;sensor_type;location;lat;lon;timestamp;P1;durP1;ratioP1;P2;durP2;ratioP2
54977;SDS011;40873;47.522;19.106;2022-10-15T00:01:20;41.88;;;22.15;;
54977;SDS011;40873;47.522;19.106;2022-10-15T00:03:46;42.55;;;21.17;;
54977;SDS011;40873;47.522;19.106;2022-10-15T00:06:15;44.60;;;23.27;;
54977;SDS011;40873;47.522;19.106;2022-10-15T00:08:44;41.50;;;22.13;;
54977;SDS011;40873;47.522;19.106;2022-10-15T00:11:12;44.08;;;22.73;;
54977;SDS011;40873;47.522;19.106;2022-10-15T00:13:42;42.65;;;22.60;;
54977;SDS011;40873;47.522;19.106;2022-10-15T00:16:11;41.55;;;21.00;;
54977;SDS011;40873;47.522;19.106;2022-10-15T00:18:41;46.47;;;22.88;;
54977;SDS011;40873;47.522;19.106;2022-10-15T00:21:09;42.45;;;22.38;;
54977;SDS011;40873;47.522;19.106;2022-10-15T00:23:38;41.50;;;21.85;;
54977;SDS011;40873;47.522;19.106;2022-10-15T00:26:09;40.65;;;22.30;;
54977;SDS011;40873;47.522;19.106;2022-10-15T00:28:41;45.80;;;24.05;;
54977;SDS011;40873;47.522;19.106;2022-10-15T00:31:09;44.90;;;23.75;;
54977;SDS011;40873;47.522;19.106;2022-10-15T00:33:38;42.97;;;22.77;;
54977;SDS011;40873;47.522;19.106;2022-10-15T00:39:01;46.03;;;23.20;;
54977;SDS011;40873;47.522;19.106;2022-10-15T00:41:31;47.95;;;24.30;;
54977;SDS011;40873;47.522;19.106;2022-10-15T00:46:51;41.92;;;22.88;;
54977;SDS011;40873;47.522;19.106;2022-10-15T00:52:02;52.42;;;24.27;;
54977;SDS011;40873;47.522;19.106;2022-10-15T00:54:32;46.10;;;22.98;;
54977;SDS011;40873;47.522;19.106;2022-10-15T00:57:03;46.35;;;24.17;;
54977;SDS011;40873;47.522;19.106;2022-10-15T00:59:31;45.22;;;23.25;;
54977;SDS011;40873;47.522;19.106;2022-10-15T01:02:02;42.92;;;22.52;;
54977;SDS011;40873;47.522;19.106;2022-10-15T01:04:29;44.65;;;23.50;;
54977;SDS011;40873;47.522;19.106;2022-10-15T01:06:56;41.70;;;22.58;;
54977;SDS011;40873;47.522;19.106;2022-10-15T01:09:23;47.72;;;22.77;;
54977;SDS011;40873;47.522;19.106;2022-10-15T01:11:51;40.08;;;21.15;;
54977;SDS011;40873;47.522;19.106;2022-10-15T01:22:05;39.47;;;20.50;;
54977;SDS011;40873;47.522;19.106;2022-10-15T01:24:42;46.05;;;23.15;;
54977;SDS011;40873;47.522;19.106;2022-10-15T01:27:35;38.05;;;21.45;;
54977;SDS011;40873;47.522;19.106;2022-10-15T01:36:03;44.65;;;23.25;;
54977;SDS011;40873;47.522;19.106;2022-10-15T01:43:59;42.63;;;21.48;;
54977;SDS011;40873;47.522;19.106;2022-10-15T01:47:07;46.65;;;22.85;;
54977;SDS011;40873;47.522;19.106;2022-10-15T01:49:34;43.13;;;22.05;;
54977;SDS011;40873;47.522;19.106;2022-10-15T01:52:08;40.95;;;21.63;;
54977;SDS011;40873;47.522;19.106;2022-10-15T01:54:38;43.67;;;21.45;;
54977;SDS011;40873;47.522;19.106;2022-10-15T01:57:05;43.65;;;23.27;;
54977;SDS011;40873;47.522;19.106;2022-10-15T01:59:34;42.92;;;21.70;;
54977;SDS011;40873;47.522;19.106;2022-10-15T02:02:01;44.35;;;21.25;;
54977;SDS011;40873;47.522;19.106;2022-10-15T02:04:28;43.22;;;22.08;;
54977;SDS011;40873;47.522;19.106;2022-10-15T02:07:02;41.63;;;21.17;;
54977;SDS011;40873;47.522;19.106;2022-10-15T02:17:29;39.72;;;21.30;;
54977;SDS011;40873;47.522;19.106;2022-10-15T02:20:21;39.85;;;20.60;;
54977;SDS011;40873;47.522;19.106;2022-10-15T02:22:59;44.53;;;20.45;;
54977;SDS011;40873;47.522;19.106;2022-10-15T02:25:35;43.22;;;20.70;;
54977;SDS011;40873;47.522;19.106;2022-10-15T02:28:05;43.63;;;20.45;;
54977;SDS011;40873;47.522;19.106;2022-10-15T02:30:34;37.78;;;20.33;;
54977;SDS011;40873;47.522;19.106;2022-10-15T02:33:04;39.08;;;19.42;;
54977;SDS011;40873;47.522;19.106;2022-10-15T02:35:31;35.47;;;19.15;;
54977;SDS011;40873;47.522;19.106;2022-10-15T02:38:00;37.10;;;19.52;;
54977;SDS011;40873;47.522;19.106;2022-10-15T02:40:31;38.50;;;20.67;;
54977;SDS011;40873;47.522;19.106;2022-10-15T02:43:02;37.63;;;19.13;;
54977;SDS011;40873;47.522;19.106;2022-10-15T02:45:31;40.05;;;23.02;;
54977;SDS011;40873;47.522;19.106;2022-10-15T02:47:58;39.72;;;19.23;;
54977;SDS011;40873;47.522;19.106;2022-10-15T02:50:25;41.05;;;20.70;;
54977;SDS011;40873;47.522;19.106;2022-10-15T02:52:51;37.88;;;18.40;;
54977;SDS011;40873;47.522;19.106;2022-10-15T02:55:18;37.22;;;18.52;;
54977;SDS011;40873;47.522;19.106;2022-10-15T02:57:45;37.90;;;18.75;;
54977;SDS011;40873;47.522;19.106;2022-10-15T03:00:13;38.78;;;19.50;;
54977;SDS011;40873;47.522;19.106;2022-10-15T03:02:40;40.97;;;19.83;;
54977;SDS011;40873;47.522;19.106;2022-10-15T03:05:07;36.97;;;18.92;;
54977;SDS011;40873;47.522;19.106;2022-10-15T03:07:34;38.28;;;20.60;;
54977;SDS011;40873;47.522;19.106;2022-10-15T03:10:01;44.45;;;18.73;;
54977;SDS011;40873;47.522;19.106;2022-10-15T03:12:28;41.42;;;19.05;;
54977;SDS011;40873;47.522;19.106;2022-10-15T03:14:55;37.83;;;19.02;;
54977;SDS011;40873;47.522;19.106;2022-10-15T03:17:21;40.38;;;20.55;;
54977;SDS011;40873;47.522;19.106;2022-10-15T03:19:49;38.60;;;18.85;;
54977;SDS011;40873;47.522;19.106;2022-10-15T03:22:16;41.60;;;19.70;;
54977;SDS011;40873;47.522;19.106;2022-10-15T03:24:42;39.85;;;21.17;;
54977;SDS011;40873;47.522;19.106;2022-10-15T03:27:09;41.28;;;19.23;;
54977;SDS011;40873;47.522;19.106;2022-10-15T03:29:36;35.53;;;18.63;;
54977;SDS011;40873;47.522;19.106;2022-10-15T03:32:03;44.28;;;19.80;;
54977;SDS011;40873;47.522;19.106;2022-10-15T03:34:30;39.03;;;20.25;;
54977;SDS011;40873;47.522;19.106;2022-10-15T03:36:57;40.33;;;19.70;;
54977;SDS011;40873;47.522;19.106;2022-10-15T03:39:24;40.63;;;20.23;;
54977;SDS011;40873;47.522;19.106;2022-10-15T03:41:51;40.75;;;19.60;;
54977;SDS011;40873;47.522;19.106;2022-10-15T03:44:19;44.88;;;20.65;;
54977;SDS011;40873;47.522;19.106;2022-10-15T03:46:46;37.90;;;19.40;;
54977;SDS011;40873;47.522;19.106;2022-10-15T03:49:13;39.60;;;19.95;;
54977;SDS011;40873;47.522;19.106;2022-10-15T03:51:39;44.53;;;20.40;;
54977;SDS011;40873;47.522;19.106;2022-10-15T03:54:06;39.80;;;19.42;;
54977;SDS011;40873;47.522;19.106;2022-10-15T03:56:33;44.47;;;21.63;;
54977;SDS011;40873;47.522;19.106;2022-10-15T03:59:00;35.70;;;18.25;;
54977;SDS011;40873;47.522;19.106;2022-10-15T04:01:27;40.20;;;20.70;;
54977;SDS011;40873;47.522;19.106;2022-10-15T04:03:54;43.72;;;21.65;;
54977;SDS011;40873;47.522;19.106;2022-10-15T04:06:21;43.40;;;19.73;;
54977;SDS011;40873;47.522;19.106;2022-10-15T04:08:47;41.42;;;19.15;;
54977;SDS011;40873;47.522;19.106;2022-10-15T04:11:15;36.92;;;19.20;;
54977;SDS011;40873;47.522;19.106;2022-10-15T04:13:41;40.95;;;19.88;;
54977;SDS011;40873;47.522;19.106;2022-10-15T04:16:09;37.28;;;19.67;;
54977;SDS011;40873;47.522;19.106;2022-10-15T04:18:36;41.20;;;18.60;;
54977;SDS011;40873;47.522;19.106;2022-10-15T04:21:02;41.80;;;20.23;;
54977;SDS011;40873;47.522;19.106;2022-10-15T04:23:30;43.20;;;20.27;;
54977;SDS011;40873;47.522;19.106;2022-10-15T04:25:58;42.03;;;20.77;;
54977;SDS011;40873;47.522;19.106;2022-10-15T04:28:26;35.60;;;20.20;;
54977;SDS011;40873;47.522;19.106;2022-10-15T04:30:57;41.10;;;20.52;;
54977;SDS011;40873;47.522;19.106;2022-10-15T04:33:25;37.15;;;19.13;;
54977;SDS011;40873;47.522;19.106;2022-10-15T04:41:02;39.42;;;18.33;;
54977;SDS011;40873;47.522;19.106;2022-10-15T04:43:35;41.17;;;21.02;;
54977;SDS011;40873;47.522;19.106;2022-10-15T04:46:03;36.72;;;18.98;;
54977;SDS011;40873;47.522;19.106;2022-10-15T04:48:32;42.60;;;21.48;;
54977;SDS011;40873;47.522;19.106;2022-10-15T04:51:07;39.58;;;20.30;;
54977;SDS011;40873;47.522;19.106;2022-10-15T04:53:35;41.40;;;19.35;;
54977;SDS011;40873;47.522;19.106;2022-10-15T04:56:03;39.28;;;19.92;;
54977;SDS011;40873;47.522;19.106;2022-10-15T04:58:32;38.80;;;18.55;;
54977;SDS011;40873;47.522;19.106;2022-10-15T05:01:04;36.15;;;18.25;;
54977;SDS011;40873;47.522;19.106;2022-10-15T05:03:33;39.30;;;18.70;;
54977;SDS011;40873;47.522;19.106;2022-10-15T05:06:15;38.08;;;18.38;;
54977;SDS011;40873;47.522;19.106;2022-10-15T05:08:44;36.15;;;19.33;;
54977;SDS011;40873;47.522;19.106;2022-10-15T05:11:22;43.65;;;20.73;;
54977;SDS011;40873;47.522;19.106;2022-10-15T05:13:50;39.13;;;19.45;;
54977;SDS011;40873;47.522;19.106;2022-10-15T05:16:19;44.97;;;19.25;;
54977;SDS011;40873;47.522;19.106;2022-10-15T05:18:48;38.33;;;18.00;;
54977;SDS011;40873;47.522;19.106;2022-10-15T05:21:17;50.55;;;19.63;;
54977;SDS011;40873;47.522;19.106;2022-10-15T05:23:45;42.97;;;20.05;;
54977;SDS011;40873;47.522;19.106;2022-10-15T05:26:14;41.03;;;18.50;;
54977;SDS011;40873;47.522;19.106;2022-10-15T05:28:43;37.40;;;18.80;;
54977;SDS011;40873;47.522;19.106;2022-10-15T05:31:12;41.78;;;19.13;;
54977;SDS011;40873;47.522;19.106;2022-10-15T05:36:22;40.72;;;16.45;;
54977;SDS011;40873;47.522;19.106;2022-10-15T05:38:52;40.88;;;20.02;;
54977;SDS011;40873;47.522;19.106;2022-10-15T05:41:21;35.33;;;18.10;;
54977;SDS011;40873;47.522;19.106;2022-10-15T05:43:49;40.53;;;19.58;;
54977;SDS011;40873;47.522;19.106;2022-10-15T05:46:17;39.38;;;20.05;;
54977;SDS011;40873;47.522;19.106;2022-10-15T05:48:48;35.97;;;20.38;;
54977;SDS011;40873;47.522;19.106;2022-10-15T05:51:19;37.35;;;19.90;;
54977;SDS011;40873;47.522;19.106;2022-10-15T05:53:46;39.40;;;18.85;;
54977;SDS011;40873;47.522;19.106;2022-10-15T05:56:13;42.45;;;20.98;;
54977;SDS011;40873;47.522;19.106;2022-10-15T05:58:41;43.00;;;21.20;;
54977;SDS011;40873;47.522;19.106;2022-10-15T06:01:11;39.63;;;20.70;;
54977;SDS011;40873;47.522;19.106;2022-10-15T06:03:39;41.05;;;20.02;;
54977;SDS011;40873;47.522;19.106;2022-10-15T06:09:03;38.92;;;17.88;;
54977;SDS011;40873;47.522;19.106;2022-10-15T06:11:30;37.22;;;18.83;;
54977;SDS011;40873;47.522;19.106;2022-10-15T06:13:57;40.85;;;18.88;;
54977;SDS011;40873;47.522;19.106;2022-10-15T06:16:24;38.55;;;21.10;;
54977;SDS011;40873;47.522;19.106;2022-10-15T06:18:51;42.75;;;20.90;;
54977;SDS011;40873;47.522;19.106;2022-10-15T06:21:19;45.42;;;22.90;;
54977;SDS011;40873;47.522;19.106;2022-10-15T06:23:46;42.95;;;21.60;;
54977;SDS011;40873;47.522;19.106;2022-10-15T06:26:13;43.25;;;22.65;;
54977;SDS011;40873;47.522;19.106;2022-10-15T06:28:39;40.97;;;21.45;;
54977;SDS011;40873;47.522;19.106;2022-10-15T06:31:06;48.00;;;21.80;;
54977;SDS011;40873;47.522;19.106;2022-10-15T06:33:34;46.88;;;23.33;;
54977;SDS011;40873;47.522;19.106;2022-10-15T06:36:02;44.80;;;22.27;;
54977;SDS011;40873;47.522;19.106;2022-10-15T06:38:33;42.60;;;22.10;;
54977;SDS011;40873;47.522;19.106;2022-10-15T06:41:02;44.67;;;22.40;;
54977;SDS011;40873;47.522;19.106;2022-10-15T06:43:30;46.00;;;21.80;;
54977;SDS011;40873;47.522;19.106;2022-10-15T06:46:01;45.40;;;21.15;;
54977;SDS011;40873;47.522;19.106;2022-10-15T06:48:29;40.65;;;19.90;;
54977;SDS011;40873;47.522;19.106;2022-10-15T06:50:59;35.92;;;19.70;;
54977;SDS011;40873;47.522;19.106;2022-10-15T06:53:27;36.92;;;20.00;;
54977;SDS011;40873;47.522;19.106;2022-10-15T06:55:55;35.33;;;19.35;;
54977;SDS011;40873;47.522;19.106;2022-10-15T06:58:23;36.42;;;20.33;;
54977;SDS011;40873;47.522;19.106;2022-10-15T07:00:50;33.85;;;17.60;;
54977;SDS011;40873;47.522;19.106;2022-10-15T07:03:17;30.58;;;17.50;;
54977;SDS011;40873;47.522;19.106;2022-10-15T07:05:44;31.05;;;17.35;;
54977;SDS011;40873;47.522;19.106;2022-10-15T07:08:11;31.25;;;16.55;;
54977;SDS011;40873;47.522;19.106;2022-10-15T07:10:44;31.42;;;16.80;;
54977;SDS011;40873;47.522;19.106;2022-10-15T07:13:12;30.80;;;17.13;;
54977;SDS011;40873;47.522;19.106;2022-10-15T07:15:39;25.65;;;12.48;;
54977;SDS011;40873;47.522;19.106;2022-10-15T07:18:06;28.40;;;16.08;;
54977;SDS011;40873;47.522;19.106;2022-10-15T07:20:33;26.95;;;16.08;;
54977;SDS011;40873;47.522;19.106;2022-10-15T07:23:00;26.95;;;13.18;;
54977;SDS011;40873;47.522;19.106;2022-10-15T07:25:27;30.30;;;14.68;;
54977;SDS011;40873;47.522;19.106;2022-10-15T07:27:58;29.17;;;15.52;;
54977;SDS011;40873;47.522;19.106;2022-10-15T07:30:25;30.42;;;16.15;;
54977;SDS011;40873;47.522;19.106;2022-10-15T07:32:56;29.23;;;15.48;;
54977;SDS011;40873;47.522;19.106;2022-10-15T07:35:26;24.55;;;12.52;;
54977;SDS011;40873;47.522;19.106;2022-10-15T07:37:53;25.00;;;14.40;;
54977;SDS011;40873;47.522;19.106;2022-10-15T07:40:20;26.17;;;14.18;;
54977;SDS011;40873;47.522;19.106;2022-10-15T07:42:54;28.60;;;15.57;;
54977;SDS011;40873;47.522;19.106;2022-10-15T07:45:22;35.63;;;14.32;;
54977;SDS011;40873;47.522;19.106;2022-10-15T07:47:50;27.77;;;14.60;;
54977;SDS011;40873;47.522;19.106;2022-10-15T07:50:17;29.33;;;14.65;;
54977;SDS011;40873;47.522;19.106;2022-10-15T07:52:44;28.23;;;15.30;;
54977;SDS011;40873;47.522;19.106;2022-10-15T07:55:12;29.40;;;14.48;;
54977;SDS011;40873;47.522;19.106;2022-10-15T07:57:39;23.73;;;12.95;;
54977;SDS011;40873;47.522;19.106;2022-10-15T08:00:06;24.58;;;14.90;;
54977;SDS011;40873;47.522;19.106;2022-10-15T08:02:33;24.95;;;13.52;;
54977;SDS011;40873;47.522;19.106;2022-10-15T08:05:00;26.13;;;13.98;;
54977;SDS011;40873;47.522;19.106;2022-10-15T08:07:27;26.00;;;14.18;;
54977;SDS011;40873;47.522;19.106;2022-10-15T08:09:54;23.80;;;13.15;;
54977;SDS011;40873;47.522;19.106;2022-10-15T08:12:20;23.25;;;12.93;;
54977;SDS011;40873;47.522;19.106;2022-10-15T08:14:48;32.40;;;14.40;;
54977;SDS011;40873;47.522;19.106;2022-10-15T08:17:14;23.38;;;13.95;;
54977;SDS011;40873;47.522;19.106;2022-10-15T08:19:41;31.75;;;14.43;;
54977;SDS011;40873;47.522;19.106;2022-10-15T08:22:08;22.98;;;13.00;;
54977;SDS011;40873;47.522;19.106;2022-10-15T08:24:35;22.63;;;13.68;;
54977;SDS011;40873;47.522;19.106;2022-10-15T08:27:02;21.52;;;12.25;;
54977;SDS011;40873;47.522;19.106;2022-10-15T08:29:29;23.38;;;13.23;;
54977;SDS011;40873;47.522;19.106;2022-10-15T08:31:56;20.45;;;12.48;;
54977;SDS011;40873;47.522;19.106;2022-10-15T08:34:23;21.08;;;11.55;;
54977;SDS011;40873;47.522;19.106;2022-10-15T08:36:50;22.10;;;11.57;;
54977;SDS011;40873;47.522;19.106;2022-10-15T08:39:17;20.90;;;11.43;;
54977;SDS011;40873;47.522;19.106;2022-10-15T08:42:03;23.30;;;13.57;;
54977;SDS011;40873;47.522;19.106;2022-10-15T08:44:40;21.85;;;12.60;;
54977;SDS011;40873;47.522;19.106;2022-10-15T08:49:52;18.48;;;10.23;;
54977;SDS011;40873;47.522;19.106;2022-10-15T08:54:58;14.45;;;9.52;;
54977;SDS011;40873;47.522;19.106;2022-10-15T09:00:18;17.60;;;10.02;;
54977;SDS011;40873;47.522;19.106;2022-10-15T09:05:31;13.80;;;8.68;;
54977;SDS011;40873;47.522;19.106;2022-10-15T09:08:09;16.38;;;8.57;;
54977;SDS011;40873;47.522;19.106;2022-10-15T09:10:56;13.75;;;8.13;;
54977;SDS011;40873;47.522;19.106;2022-10-15T09:13:45;16.55;;;9.68;;
54977;SDS011;40873;47.522;19.106;2022-10-15T09:16:16;16.35;;;8.35;;
54977;SDS011;40873;47.522;19.106;2022-10-15T09:18:48;14.30;;;8.73;;
54977;SDS011;40873;47.522;19.106;2022-10-15T09:21:18;17.15;;;8.48;;
54977;SDS011;40873;47.522;19.106;2022-10-15T09:23:47;14.07;;;9.68;;
54977;SDS011;40873;47.522;19.106;2022-10-15T09:26:25;16.90;;;8.55;;
54977;SDS011;40873;47.522;19.106;2022-10-15T09:31:27;13.63;;;7.93;;
54977;SDS011;40873;47.522;19.106;2022-10-15T09:34:01;14.03;;;7.20;;
54977;SDS011;40873;47.522;19.106;2022-10-15T09:36:49;15.60;;;8.10;;
54977;SDS011;40873;47.522;19.106;2022-10-15T09:42:05;14.82;;;7.28;;
54977;SDS011;40873;47.522;19.106;2022-10-15T09:44:41;15.15;;;8.20;;
54977;SDS011;40873;47.522;19.106;2022-10-15T09:47:19;13.32;;;8.00;;
54977;SDS011;40873;47.522;19.106;2022-10-15T09:49:48;12.75;;;7.55;;
54977;SDS011;40873;47.522;19.106;2022-10-15T09:55:14;10.65;;;6.60;;
54977;SDS011;40873;47.522;19.106;2022-10-15T09:57:47;14.10;;;7.95;;
54977;SDS011;40873;47.522;19.106;2022-10-15T10:00:19;14.85;;;7.50;;
54977;SDS011;40873;47.522;19.106;2022-10-15T10:03:05;15.10;;;7.70;;
54977;SDS011;40873;47.522;19.106;2022-10-15T10:10:51;12.00;;;7.13;;
54977;SDS011;40873;47.522;19.106;2022-10-15T10:16:11;13.00;;;6.95;;
54977;SDS011;40873;47.522;19.106;2022-10-15T10:18:39;12.45;;;6.20;;
54977;SDS011;40873;47.522;19.106;2022-10-15T10:21:23;14.27;;;6.72;;
54977;SDS011;40873;47.522;19.106;2022-10-15T10:23:55;12.07;;;7.18;;
54977;SDS011;40873;47.522;19.106;2022-10-15T10:26:56;13.15;;;6.07;;
54977;SDS011;40873;47.522;19.106;2022-10-15T10:29:25;10.77;;;6.18;;
54977;SDS011;40873;47.522;19.106;2022-10-15T10:32:11;9.35;;;5.85;;
54977;SDS011;40873;47.522;19.106;2022-10-15T10:34:45;10.45;;;6.13;;
54977;SDS011;40873;47.522;19.106;2022-10-15T10:37:18;9.38;;;5.40;;
54977;SDS011;40873;47.522;19.106;2022-10-15T10:39:50;12.07;;;5.93;;
54977;SDS011;40873;47.522;19.106;2022-10-15T10:42:27;12.93;;;5.72;;
54977;SDS011;40873;47.522;19.106;2022-10-15T10:45:18;10.80;;;6.07;;
54977;SDS011;40873;47.522;19.106;2022-10-15T10:47:48;10.02;;;5.78;;
54977;SDS011;40873;47.522;19.106;2022-10-15T10:50:31;16.45;;;6.20;;
54977;SDS011;40873;47.522;19.106;2022-10-15T10:53:12;10.38;;;5.28;;
54977;SDS011;40873;47.522;19.106;2022-10-15T10:55:45;10.93;;;5.45;;
54977;SDS011;40873;47.522;19.106;2022-10-15T10:58:19;12.52;;;4.85;;
54977;SDS011;40873;47.522;19.106;2022-10-15T11:00:52;11.07;;;5.03;;
54977;SDS011;40873;47.522;19.106;2022-10-15T11:03:24;16.98;;;5.13;;
54977;SDS011;40873;47.522;19.106;2022-10-15T11:11:21;7.78;;;4.85;;
54977;SDS011;40873;47.522;19.106;2022-10-15T11:16:54;7.80;;;4.03;;
54977;SDS011;40873;47.522;19.106;2022-10-15T11:19:38;9.52;;;4.50;;
54977;SDS011;40873;47.522;19.106;2022-10-15T11:33:19;8.65;;;4.55;;
54977;SDS011;40873;47.522;19.106;2022-10-15T11:36:22;8.32;;;4.70;;
54977;SDS011;40873;47.522;19.106;2022-10-15T11:42:52;7.50;;;3.88;;
54977;SDS011;40873;47.522;19.106;2022-10-15T11:55:36;9.18;;;4.43;;
54977;SDS011;40873;47.522;19.106;2022-10-15T11:58:10;12.20;;;5.00;;
54977;SDS011;40873;47.522;19.106;2022-10-15T12:00:55;11.93;;;4.80;;
54977;SDS011;40873;47.522;19.106;2022-10-15T12:03:27;6.97;;;4.43;;
54977;SDS011;40873;47.522;19.106;2022-10-15T12:08:33;8.07;;;4.57;;
54977;SDS011;40873;47.522;19.106;2022-10-15T12:16:27;13.20;;;4.05;;
54977;SDS011;40873;47.522;19.106;2022-10-15T12:19:22;9.27;;;4.38;;
54977;SDS011;40873;47.522;19.106;2022-10-15T12:29:45;8.57;;;3.80;;
54977;SDS011;40873;47.522;19.106;2022-10-15T12:32:22;10.95;;;4.20;;
54977;SDS011;40873;47.522;19.106;2022-10-15T12:34:57;6.15;;;3.70;;
54977;SDS011;40873;47.522;19.106;2022-10-15T12:37:27;9.55;;;4.35;;
54977;SDS011;40873;47.522;19.106;2022-10-15T12:39:57;8.15;;;3.65;;
54977;SDS011;40873;47.522;19.106;2022-10-15T12:42:31;9.20;;;4.38;;
54977;SDS011;40873;47.522;19.106;2022-10-15T12:45:02;9.80;;;4.25;;
54977;SDS011;40873;47.522;19.106;2022-10-15T12:50:18;8.10;;;4.50;;
54977;SDS011;40873;47.522;19.106;2022-10-15T12:55:30;10.85;;;3.10;;
54977;SDS011;40873;47.522;19.106;2022-10-15T13:00:33;6.70;;;3.70;;
54977;SDS011;40873;47.522;19.106;2022-10-15T13:05:50;5.75;;;3.78;;
54977;SDS011;40873;47.522;19.106;2022-10-15T13:08:21;8.80;;;3.78;;
54977;SDS011;40873;47.522;19.106;2022-10-15T13:10:51;7.10;;;3.53;;
54977;SDS011;40873;47.522;19.106;2022-10-15T13:13:22;6.45;;;3.65;;
54977;SDS011;40873;47.522;19.106;2022-10-15T13:15:59;7.10;;;3.72;;
54977;SDS011;40873;47.522;19.106;2022-10-15T13:18:28;9.35;;;4.10;;
54977;SDS011;40873;47.522;19.106;2022-10-15T13:20:56;6.43;;;4.38;;
54977;SDS011;40873;47.522;19.106;2022-10-15T13:28:46;11.90;;;4.60;;
54977;SDS011;40873;47.522;19.106;2022-10-15T13:33:52;8.25;;;3.60;;
54977;SDS011;40873;47.522;19.106;2022-10-15T13:36:22;8.80;;;4.10;;
54977;SDS011;40873;47.522;19.106;2022-10-15T13:44:22;5.55;;;3.22;;
54977;SDS011;40873;47.522;19.106;2022-10-15T13:46:50;7.78;;;3.60;;
54977;SDS011;40873;47.522;19.106;2022-10-15T13:49:17;7.65;;;4.30;;
54977;SDS011;40873;47.522;19.106;2022-10-15T13:51:46;5.00;;;3.72;;
54977;SDS011;40873;47.522;19.106;2022-10-15T13:54:22;10.05;;;3.90;;
54977;SDS011;40873;47.522;19.106;2022-10-15T13:56:54;7.35;;;3.85;;
54977;SDS011;40873;47.522;19.106;2022-10-15T13:59:26;6.95;;;3.97;;
54977;SDS011;40873;47.522;19.106;2022-10-15T14:01:56;6.90;;;3.70;;
54977;SDS011;40873;47.522;19.106;2022-10-15T14:04:27;6.78;;;3.67;;
54977;SDS011;40873;47.522;19.106;2022-10-15T14:06:56;6.93;;;3.75;;
54977;SDS011;40873;47.522;19.106;2022-10-15T14:09:32;6.53;;;3.65;;
54977;SDS011;40873;47.522;19.106;2022-10-15T14:12:01;5.97;;;3.80;;
54977;SDS011;40873;47.522;19.106;2022-10-15T14:14:32;9.57;;;3.80;;
54977;SDS011;40873;47.522;19.106;2022-10-15T14:17:08;10.68;;;4.88;;
54977;SDS011;40873;47.522;19.106;2022-10-15T14:19:45;7.30;;;4.35;;
54977;SDS011;40873;47.522;19.106;2022-10-15T14:22:33;8.02;;;4.05;;
54977;SDS011;40873;47.522;19.106;2022-10-15T14:25:00;6.53;;;4.32;;
54977;SDS011;40873;47.522;19.106;2022-10-15T14:27:35;8.82;;;4.22;;
54977;SDS011;40873;47.522;19.106;2022-10-15T14:30:17;8.00;;;4.30;;
54977;SDS011;40873;47.522;19.106;2022-10-15T14:32:49;5.95;;;3.83;;
54977;SDS011;40873;47.522;19.106;2022-10-15T14:35:36;6.43;;;3.35;;
54977;SDS011;40873;47.522;19.106;2022-10-15T14:38:24;5.47;;;3.97;;
54977;SDS011;40873;47.522;19.106;2022-10-15T14:41:04;9.23;;;4.10;;
54977;SDS011;40873;47.522;19.106;2022-10-15T14:43:44;7.63;;;3.90;;
54977;SDS011;40873;47.522;19.106;2022-10-15T14:46:14;9.82;;;3.92;;
54977;SDS011;40873;47.522;19.106;2022-10-15T14:48:44;9.20;;;4.07;;
54977;SDS011;40873;47.522;19.106;2022-10-15T14:51:19;9.85;;;3.90;;
54977;SDS011;40873;47.522;19.106;2022-10-15T14:53:50;10.52;;;4.03;;
54977;SDS011;40873;47.522;19.106;2022-10-15T14:56:19;9.98;;;3.97;;
54977;SDS011;40873;47.522;19.106;2022-10-15T14:58:49;15.13;;;4.50;;
54977;SDS011;40873;47.522;19.106;2022-10-15T15:01:19;7.55;;;3.50;;
54977;SDS011;40873;47.522;19.106;2022-10-15T15:03:50;8.50;;;3.60;;
54977;SDS011;40873;47.522;19.106;2022-10-15T15:06:18;9.07;;;5.07;;
54977;SDS011;40873;47.522;19.106;2022-10-15T15:08:46;10.00;;;4.28;;
54977;SDS011;40873;47.522;19.106;2022-10-15T15:11:17;10.00;;;5.03;;
54977;SDS011;40873;47.522;19.106;2022-10-15T15:13:48;7.03;;;4.28;;
54977;SDS011;40873;47.522;19.106;2022-10-15T15:16:17;11.32;;;4.63;;
54977;SDS011;40873;47.522;19.106;2022-10-15T15:18:44;9.57;;;5.60;;
54977;SDS011;40873;47.522;19.106;2022-10-15T15:21:15;10.48;;;4.78;;
54977;SDS011;40873;47.522;19.106;2022-10-15T15:23:45;7.70;;;4.95;;
54977;SDS011;40873;47.522;19.106;2022-10-15T15:26:13;8.30;;;4.63;;
54977;SDS011;40873;47.522;19.106;2022-10-15T15:28:40;10.15;;;4.72;;
54977;SDS011;40873;47.522;19.106;2022-10-15T15:31:11;7.10;;;4.32;;
54977;SDS011;40873;47.522;19.106;2022-10-15T15:33:41;12.02;;;4.68;;
54977;SDS011;40873;47.522;19.106;2022-10-15T15:36:09;5.90;;;3.58;;
54977;SDS011;40873;47.522;19.106;2022-10-15T15:43:43;6.72;;;4.43;;
54977;SDS011;40873;47.522;19.106;2022-10-15T15:46:12;6.25;;;4.10;;
54977;SDS011;40873;47.522;19.106;2022-10-15T15:48:39;8.52;;;4.18;;
54977;SDS011;40873;47.522;19.106;2022-10-15T15:51:10;14.63;;;4.10;;
54977;SDS011;40873;47.522;19.106;2022-10-15T15:53:51;6.82;;;4.10;;
54977;SDS011;40873;47.522;19.106;2022-10-15T15:56:18;8.70;;;4.68;;
54977;SDS011;40873;47.522;19.106;2022-10-15T15:58:45;7.95;;;4.43;;
54977;SDS011;40873;47.522;19.106;2022-10-15T16:01:12;6.45;;;4.32;;
54977;SDS011;40873;47.522;19.106;2022-10-15T16:03:39;7.65;;;4.35;;
54977;SDS011;40873;47.522;19.106;2022-10-15T16:06:06;7.88;;;3.60;;
54977;SDS011;40873;47.522;19.106;2022-10-15T16:08:34;7.70;;;4.13;;
54977;SDS011;40873;47.522;19.106;2022-10-15T16:11:02;14.43;;;4.00;;
54977;SDS011;40873;47.522;19.106;2022-10-15T16:13:31;10.10;;;4.35;;
54977;SDS011;40873;47.522;19.106;2022-10-15T16:15:59;6.60;;;4.10;;
54977;SDS011;40873;47.522;19.106;2022-10-15T16:18:26;6.78;;;4.40;;
54977;SDS011;40873;47.522;19.106;2022-10-15T16:20:53;10.52;;;3.97;;
54977;SDS011;40873;47.522;19.106;2022-10-15T16:23:20;10.70;;;4.47;;
54977;SDS011;40873;47.522;19.106;2022-10-15T16:25:47;7.45;;;4.03;;
54977;SDS011;40873;47.522;19.106;2022-10-15T16:28:14;9.23;;;4.85;;
54977;SDS011;40873;47.522;19.106;2022-10-15T16:30:41;9.07;;;4.50;;
54977;SDS011;40873;47.522;19.106;2022-10-15T16:33:08;7.03;;;4.63;;
54977;SDS011;40873;47.522;19.106;2022-10-15T16:35:34;9.60;;;4.72;;
54977;SDS011;40873;47.522;19.106;2022-10-15T16:38:02;8.52;;;4.78;;
54977;SDS011;40873;47.522;19.106;2022-10-15T16:40:28;9.70;;;4.93;;
54977;SDS011;40873;47.522;19.106;2022-10-15T16:42:55;9.63;;;5.13;;
54977;SDS011;40873;47.522;19.106;2022-10-15T16:45:22;11.43;;;5.10;;
54977;SDS011;40873;47.522;19.106;2022-10-15T16:47:49;13.32;;;5.20;;
54977;SDS011;40873;47.522;19.106;2022-10-15T16:50:16;12.68;;;5.50;;
54977;SDS011;40873;47.522;19.106;2022-10-15T16:52:43;11.77;;;6.47;;
54977;SDS011;40873;47.522;19.106;2022-10-15T16:55:10;9.57;;;5.30;;
54977;SDS011;40873;47.522;19.106;2022-10-15T16:57:37;9.07;;;4.72;;
54977;SDS011;40873;47.522;19.106;2022-10-15T17:00:03;9.65;;;5.50;;
54977;SDS011;40873;47.522;19.106;2022-10-15T17:02:31;8.25;;;5.32;;
54977;SDS011;40873;47.522;19.106;2022-10-15T17:04:57;10.27;;;5.60;;
54977;SDS011;40873;47.522;19.106;2022-10-15T17:07:24;15.88;;;5.28;;
54977;SDS011;40873;47.522;19.106;2022-10-15T17:09:52;8.52;;;6.10;;